createdAt,value
2018-12-22T00:01:42.876Z,21.93
2018-12-22T00:04:08.886Z,23.90
2018-12-22T00:06:34.898Z,35.47
2018-12-22T00:09:00.915Z,22.83
2018-12-22T00:11:26.918Z,29.63
2018-12-22T00:13:53.317Z,23.20
2018-12-22T00:16:19.331Z,17.80
2018-12-22T00:18:45.366Z,24.77
2018-12-22T00:21:11.427Z,23.67
2018-12-22T00:23:37.441Z,21.77
2018-12-22T00:26:03.439Z,24.93
2018-12-22T00:28:29.494Z,21.50
2018-12-22T00:30:55.546Z,24.03
2018-12-22T00:33:22.546Z,24.57
2018-12-22T00:35:48.554Z,22.37
2018-12-22T00:38:14.573Z,20.73
2018-12-22T00:40:40.586Z,23.20
2018-12-22T00:43:06.603Z,22.53
2018-12-22T00:45:32.609Z,25.47
2018-12-22T00:47:58.615Z,29.07
2018-12-22T00:50:24.636Z,25.93
2018-12-22T00:52:50.655Z,21.90
2018-12-22T00:55:16.678Z,27.50
2018-12-22T00:57:42.943Z,25.27
2018-12-22T01:00:09.407Z,21.40
2018-12-22T01:02:35.419Z,29.60
2018-12-22T01:05:01.444Z,36.03
2018-12-22T01:07:27.678Z,23.93
2018-12-22T01:09:53.811Z,25.30
2018-12-22T01:12:19.831Z,23.97
2018-12-22T01:14:45.854Z,22.57
2018-12-22T01:17:12.211Z,27.50
2018-12-22T01:19:38.351Z,29.43
2018-12-22T01:22:04.467Z,25.23
2018-12-22T01:24:30.491Z,21.00
2018-12-22T01:26:56.701Z,27.50
2018-12-22T01:29:22.742Z,21.17
2018-12-22T01:31:48.758Z,20.57
2018-12-22T01:34:14.766Z,16.63
2018-12-22T01:36:40.889Z,20.13
2018-12-22T01:39:07.123Z,24.37
2018-12-22T01:41:33.255Z,20.90
2018-12-22T01:43:59.290Z,15.87
2018-12-22T01:46:25.306Z,18.83
2018-12-22T01:48:51.353Z,16.47
2018-12-22T01:51:17.414Z,16.57
2018-12-22T01:53:43.481Z,18.40
2018-12-22T01:56:09.502Z,17.37
2018-12-22T01:58:35.644Z,16.87
2018-12-22T02:01:01.656Z,21.33
2018-12-22T02:03:27.678Z,20.77
2018-12-22T02:05:53.699Z,21.40
2018-12-22T02:08:26.650Z,20.63
2018-12-22T02:10:52.679Z,18.43
2018-12-22T02:13:25.571Z,20.20
2018-12-22T02:15:51.591Z,24.03
2018-12-22T02:18:17.599Z,20.47
2018-12-22T02:20:43.683Z,17.73
2018-12-22T02:23:09.742Z,19.57
2018-12-22T02:25:35.810Z,18.20
2018-12-22T02:28:01.830Z,19.87
2018-12-22T02:30:27.899Z,16.93
2018-12-22T02:32:53.908Z,21.17
2018-12-22T02:35:19.936Z,17.07
2018-12-22T02:37:46.060Z,22.13
2018-12-22T02:40:12.092Z,19.17
2018-12-22T02:42:38.114Z,21.23
2018-12-22T02:45:04.480Z,15.37
2018-12-22T02:47:30.486Z,18.67
2018-12-22T02:49:56.535Z,20.23
2018-12-22T02:52:22.557Z,18.23
2018-12-22T02:54:48.582Z,13.33
2018-12-22T02:57:14.601Z,19.60
2018-12-22T02:59:40.618Z,21.87
2018-12-22T03:02:06.659Z,16.97
2018-12-22T03:04:32.675Z,17.07
2018-12-22T03:06:58.688Z,15.97
2018-12-22T03:09:24.705Z,17.87
2018-12-22T03:11:50.739Z,17.93
2018-12-22T03:14:16.743Z,16.50
2018-12-22T03:16:42.890Z,16.13
2018-12-22T03:19:09.006Z,9.47
2018-12-22T03:21:35.172Z,11.50
2018-12-22T03:24:01.213Z,11.70
2018-12-22T03:26:27.241Z,10.77
2018-12-22T03:28:53.245Z,10.57
2018-12-22T03:31:19.260Z,10.40
2018-12-22T03:33:45.276Z,13.13
2018-12-22T03:36:11.277Z,11.90
2018-12-22T03:38:37.275Z,13.03
2018-12-22T03:41:03.408Z,14.27
2018-12-22T03:43:29.515Z,14.73
2018-12-22T03:45:55.531Z,11.10
2018-12-22T03:48:21.544Z,16.10
2018-12-22T03:50:47.551Z,9.13
2018-12-22T03:53:13.561Z,10.93
2018-12-22T03:55:39.572Z,9.93
2018-12-22T03:58:05.692Z,10.30
2018-12-22T04:00:31.692Z,8.57
2018-12-22T04:02:57.714Z,6.03
2018-12-22T04:05:23.815Z,8.17
2018-12-22T04:07:49.836Z,10.27
2018-12-22T04:10:15.842Z,12.90
2018-12-22T04:12:41.877Z,7.37
2018-12-22T04:15:08.005Z,12.50
2018-12-22T04:17:34.016Z,20.83
2018-12-22T04:20:00.025Z,9.00
2018-12-22T04:22:26.146Z,10.13
2018-12-22T04:24:53.678Z,14.67
2018-12-22T04:27:19.682Z,12.27
2018-12-22T04:29:45.694Z,12.30
2018-12-22T04:32:11.703Z,8.97
2018-12-22T04:34:37.698Z,9.10
2018-12-22T04:37:03.723Z,11.67
2018-12-22T04:39:30.027Z,10.47
2018-12-22T04:41:56.039Z,8.97
2018-12-22T04:44:22.047Z,11.50
2018-12-22T04:46:48.061Z,13.87
2018-12-22T04:49:14.069Z,8.90
2018-12-22T04:51:40.186Z,9.37
2018-12-22T04:54:06.222Z,9.73
2018-12-22T04:56:32.274Z,10.17
2018-12-22T04:58:58.392Z,15.70
2018-12-22T05:01:24.394Z,10.63
2018-12-22T05:03:50.409Z,10.33
2018-12-22T05:06:16.522Z,9.63
2018-12-22T05:08:42.555Z,9.10
2018-12-22T05:11:08.561Z,11.60
2018-12-22T05:13:34.695Z,10.00
2018-12-22T05:16:00.703Z,9.77
2018-12-22T05:18:26.726Z,10.37
2018-12-22T05:20:52.718Z,9.07
2018-12-22T05:23:18.725Z,6.33
2018-12-22T05:25:44.719Z,6.07
2018-12-22T05:28:10.734Z,9.97
2018-12-22T05:30:36.742Z,8.20
2018-12-22T05:33:02.786Z,8.97
2018-12-22T05:35:28.796Z,8.77
2018-12-22T05:37:54.803Z,6.97
2018-12-22T05:40:20.812Z,6.17
2018-12-22T05:42:46.823Z,7.47
2018-12-22T05:45:12.823Z,9.17
2018-12-22T05:47:38.826Z,12.30
2018-12-22T05:50:06.344Z,7.27
2018-12-22T05:52:32.671Z,9.37
2018-12-22T05:54:58.678Z,9.20
2018-12-22T05:57:24.679Z,6.53
2018-12-22T05:59:50.692Z,8.27
2018-12-22T06:02:16.723Z,6.13
2018-12-22T06:04:42.772Z,6.07
2018-12-22T06:07:08.783Z,5.40
2018-12-22T06:09:34.803Z,5.83
2018-12-22T06:12:00.808Z,7.60
2018-12-22T06:14:26.839Z,10.37
2018-12-22T06:16:52.839Z,3.63
2018-12-22T06:19:19.058Z,4.67
2018-12-22T06:21:45.054Z,7.00
2018-12-22T06:24:11.058Z,3.70
2018-12-22T06:26:37.083Z,5.97
2018-12-22T06:29:03.202Z,4.17
2018-12-22T06:31:29.236Z,5.37
2018-12-22T06:33:55.255Z,3.77
2018-12-22T06:36:21.255Z,6.07
2018-12-22T06:38:47.280Z,3.90
2018-12-22T06:41:13.295Z,5.80
2018-12-22T06:43:39.298Z,2.77
2018-12-22T06:46:05.314Z,4.30
2018-12-22T06:48:31.332Z,3.83
2018-12-22T06:50:57.340Z,5.13
2018-12-22T06:53:23.339Z,3.23
2018-12-22T06:55:49.350Z,3.60
2018-12-22T06:58:15.379Z,5.87
2018-12-22T07:00:41.520Z,4.10
2018-12-22T07:03:07.523Z,2.33
2018-12-22T07:05:33.653Z,2.50
2018-12-22T07:07:59.670Z,6.70
2018-12-22T07:10:25.688Z,5.70
2018-12-22T07:12:51.715Z,6.63
2018-12-22T07:15:17.750Z,8.17
2018-12-22T07:17:43.754Z,3.63
2018-12-22T07:20:16.822Z,4.93
2018-12-22T07:22:42.838Z,5.83
2018-12-22T07:25:09.094Z,8.90
2018-12-22T07:27:35.102Z,7.27
2018-12-22T07:30:01.644Z,6.87
2018-12-22T07:32:27.656Z,6.30
2018-12-22T07:34:53.678Z,4.63
2018-12-22T07:37:19.683Z,5.63
2018-12-22T07:39:45.799Z,5.30
2018-12-22T07:42:11.807Z,10.53
2018-12-22T07:44:37.819Z,5.37
2018-12-22T07:47:03.955Z,3.90
2018-12-22T07:49:30.022Z,5.50
2018-12-22T07:51:56.027Z,3.83
2018-12-22T07:54:22.026Z,7.57
2018-12-22T07:56:48.055Z,7.57
2018-12-22T07:59:14.191Z,6.00
2018-12-22T08:01:40.212Z,7.27
2018-12-22T08:04:06.325Z,3.93
2018-12-22T08:06:32.349Z,8.70
2018-12-22T08:08:58.367Z,6.40
2018-12-22T08:11:24.399Z,8.07
2018-12-22T08:13:50.652Z,7.40
2018-12-22T08:16:16.687Z,12.33
2018-12-22T08:18:42.743Z,7.83
2018-12-22T08:21:09.090Z,8.53
2018-12-22T08:23:35.538Z,6.97
2018-12-22T08:26:01.894Z,7.17
2018-12-22T08:28:27.968Z,5.93
2018-12-22T08:30:54.108Z,6.97
2018-12-22T08:33:20.520Z,8.43
2018-12-22T08:35:46.571Z,3.93
2018-12-22T08:38:12.618Z,9.03
2018-12-22T08:40:38.742Z,6.43
2018-12-22T08:43:04.803Z,4.67
2018-12-22T08:45:30.839Z,6.57
2018-12-22T08:47:56.843Z,7.00
2018-12-22T08:50:22.850Z,4.30
2018-12-22T08:52:48.864Z,7.80
2018-12-22T08:55:15.052Z,6.50
2018-12-22T08:57:41.086Z,8.30
2018-12-22T09:00:09.410Z,6.70
2018-12-22T09:02:35.539Z,5.20
2018-12-22T09:05:01.588Z,6.60
2018-12-22T09:07:27.666Z,7.03
2018-12-22T09:09:53.668Z,5.83
2018-12-22T09:12:19.675Z,9.43
2018-12-22T09:14:45.699Z,6.60
2018-12-22T09:17:11.764Z,10.13
2018-12-22T09:19:37.775Z,6.53
2018-12-22T09:22:03.807Z,5.30
2018-12-22T09:24:29.814Z,7.57
2018-12-22T09:26:55.868Z,7.87
2018-12-22T09:29:21.875Z,4.83
2018-12-22T09:31:47.902Z,6.83
2018-12-22T09:34:13.933Z,9.43
2018-12-22T09:36:40.086Z,6.90
2018-12-22T09:39:06.708Z,10.73
2018-12-22T09:41:32.741Z,8.33
2018-12-22T09:43:58.868Z,6.97
2018-12-22T09:46:24.879Z,6.43
2018-12-22T09:48:50.909Z,5.73
2018-12-22T09:51:16.923Z,7.97
2018-12-22T09:53:42.963Z,7.70
2018-12-22T09:56:08.979Z,10.00
2018-12-22T09:58:35.022Z,7.77
2018-12-22T10:01:09.103Z,8.73
2018-12-22T10:03:29.093Z,7.13
2018-12-22T10:05:55.117Z,5.33
2018-12-22T10:08:21.133Z,6.13
2018-12-22T10:10:47.158Z,6.07
2018-12-22T10:13:13.186Z,7.07
2018-12-22T10:15:39.449Z,5.93
2018-12-22T10:18:05.632Z,7.97
2018-12-22T10:20:31.759Z,7.43
2018-12-22T10:22:57.794Z,7.73
2018-12-22T10:25:23.818Z,8.10
2018-12-22T10:27:49.846Z,7.83
2018-12-22T10:30:15.875Z,7.60
2018-12-22T10:32:41.907Z,11.07
2018-12-22T10:35:11.928Z,7.23
2018-12-22T10:37:37.947Z,7.03
2018-12-22T10:40:06.389Z,8.70
2018-12-22T10:42:32.409Z,6.37
2018-12-22T10:44:58.412Z,7.17
2018-12-22T10:47:24.459Z,6.63
2018-12-22T10:49:50.491Z,7.80
2018-12-22T10:52:16.547Z,6.00
2018-12-22T10:54:42.619Z,3.60
2018-12-22T10:57:08.633Z,5.03
2018-12-22T10:59:34.668Z,6.60
2018-12-22T11:02:00.724Z,4.90
2018-12-22T11:04:26.743Z,4.73
2018-12-22T11:06:52.793Z,6.97
2018-12-22T11:09:18.815Z,11.33
2018-12-22T11:11:44.891Z,10.20
2018-12-22T11:14:11.978Z,8.37
2018-12-22T11:16:38.274Z,7.70
2018-12-22T11:19:04.291Z,6.13
2018-12-22T11:21:30.443Z,6.00
2018-12-22T11:23:56.549Z,6.07
2018-12-22T11:26:22.575Z,8.87
2018-12-22T11:28:48.607Z,9.63
2018-12-22T11:31:14.614Z,7.70
2018-12-22T11:33:40.655Z,7.53
2018-12-22T11:36:06.654Z,6.40
2018-12-22T11:38:32.774Z,6.07
2018-12-22T11:40:58.822Z,9.40
2018-12-22T11:43:24.840Z,4.70
2018-12-22T11:45:50.986Z,6.40
2018-12-22T11:48:19.019Z,5.00
2018-12-22T11:50:45.035Z,4.07
2018-12-22T11:53:18.180Z,7.93
2018-12-22T11:55:44.232Z,6.10
2018-12-22T11:58:10.235Z,4.37
2018-12-22T12:00:36.247Z,4.80
2018-12-22T12:03:02.554Z,7.60
2018-12-22T12:05:28.571Z,4.47
2018-12-22T12:07:54.600Z,6.77
2018-12-22T12:10:20.650Z,6.53
2018-12-22T12:12:46.659Z,9.13
2018-12-22T12:15:15.987Z,7.47
2018-12-22T12:17:46.864Z,5.67
2018-12-22T12:20:12.891Z,4.97
2018-12-22T12:22:38.901Z,7.10
2018-12-22T12:25:05.760Z,6.10
2018-12-22T12:27:32.003Z,7.30
2018-12-22T12:29:58.019Z,8.90
2018-12-22T12:32:24.033Z,8.00
2018-12-22T12:34:50.047Z,7.93
2018-12-22T12:37:16.060Z,10.60
2018-12-22T12:39:42.093Z,7.43
2018-12-22T12:42:08.243Z,10.17
2018-12-22T12:44:34.380Z,7.53
2018-12-22T12:47:00.648Z,7.53
2018-12-22T12:49:26.735Z,7.30
2018-12-22T12:51:52.737Z,7.53
2018-12-22T12:54:18.903Z,6.40
2018-12-22T12:56:45.034Z,7.77
2018-12-22T12:59:11.043Z,6.23
2018-12-22T13:01:37.048Z,5.83
2018-12-22T13:04:07.239Z,9.30
2018-12-22T13:06:36.539Z,7.53
2018-12-22T13:09:06.830Z,8.03
2018-12-22T13:11:35.880Z,5.77
2018-12-22T13:16:42.161Z,9.37
2018-12-22T13:19:12.250Z,7.50
2018-12-22T13:24:13.614Z,5.30
2018-12-22T13:26:41.898Z,6.73
2018-12-22T13:31:51.959Z,7.73
2018-12-22T13:34:20.850Z,11.73
2018-12-22T13:36:51.210Z,14.10
2018-12-22T13:39:24.355Z,6.43
2018-12-22T13:44:36.828Z,8.50
2018-12-22T13:49:53.335Z,9.20
2018-12-22T13:52:27.392Z,9.43
2018-12-22T13:54:59.074Z,9.90
2018-12-22T13:57:33.082Z,9.47
2018-12-22T14:00:07.298Z,13.40
2018-12-22T14:05:14.960Z,9.30
2018-12-22T14:07:41.755Z,14.23
2018-12-22T14:10:12.434Z,10.63
2018-12-22T14:12:40.545Z,9.50
2018-12-22T14:15:15.599Z,9.63
2018-12-22T14:17:49.838Z,10.63
2018-12-22T14:20:17.728Z,9.80
2018-12-22T14:22:44.912Z,13.20
2018-12-22T14:25:14.007Z,8.97
2018-12-22T14:27:42.834Z,6.93
2018-12-22T14:30:12.189Z,11.80
2018-12-22T14:32:43.545Z,16.23
2018-12-22T14:35:16.112Z,9.13
2018-12-22T14:37:45.916Z,11.40
2018-12-22T14:40:12.542Z,13.97
2018-12-22T14:42:40.798Z,7.60
2018-12-22T14:45:12.072Z,7.53
2018-12-22T14:47:41.129Z,9.80
2018-12-22T14:50:10.968Z,11.80
2018-12-22T14:52:38.721Z,12.27
2018-12-22T14:55:10.060Z,12.07
2018-12-22T14:57:42.753Z,10.73
2018-12-22T15:00:17.290Z,10.37
2018-12-22T15:02:45.431Z,8.70
2018-12-22T15:05:13.504Z,12.10
2018-12-22T15:07:43.135Z,9.43
2018-12-22T15:10:17.835Z,10.80
2018-12-22T15:12:46.237Z,10.67
2018-12-22T15:15:15.947Z,12.13
2018-12-22T15:17:43.593Z,7.67
2018-12-22T15:20:19.350Z,8.73
2018-12-22T15:22:47.637Z,8.67
2018-12-22T15:25:32.386Z,10.37
2018-12-22T15:28:02.929Z,10.57
2018-12-22T15:30:35.568Z,13.27
2018-12-22T15:33:20.593Z,8.23
2018-12-22T15:35:49.560Z,11.17
2018-12-22T15:38:15.579Z,8.57
2018-12-22T15:40:41.702Z,8.57
2018-12-22T15:43:07.709Z,10.30
2018-12-22T15:45:33.736Z,8.90
2018-12-22T15:47:59.962Z,10.27
2018-12-22T15:50:31.863Z,11.70
2018-12-22T15:52:58.296Z,11.83
2018-12-22T15:55:24.533Z,7.93
2018-12-22T15:57:50.546Z,7.97
2018-12-22T16:00:16.564Z,10.47
2018-12-22T16:02:42.578Z,11.77
2018-12-22T16:05:17.350Z,10.50
2018-12-22T16:07:43.578Z,10.40
2018-12-22T16:10:14.453Z,13.83
2018-12-22T16:12:40.738Z,9.50
2018-12-22T16:15:12.691Z,10.67
2018-12-22T16:17:39.099Z,10.47
2018-12-22T16:20:09.238Z,12.67
2018-12-22T16:22:35.378Z,8.27
2018-12-22T16:25:01.903Z,12.87
2018-12-22T16:27:27.911Z,11.73
2018-12-22T16:29:54.243Z,10.13
2018-12-22T16:32:20.287Z,10.07
2018-12-22T16:34:46.416Z,10.57
2018-12-22T16:37:12.435Z,17.53
2018-12-22T16:39:38.507Z,14.87
2018-12-22T16:42:04.860Z,15.07
2018-12-22T16:44:30.875Z,13.77
2018-12-22T16:46:56.890Z,12.90
2018-12-22T16:49:22.924Z,13.30
2018-12-22T16:51:49.050Z,10.60
2018-12-22T16:54:15.061Z,17.43
2018-12-22T16:56:41.294Z,18.07
2018-12-22T16:59:07.306Z,11.03
2018-12-22T17:01:36.736Z,16.73
2018-12-22T17:04:02.975Z,15.17
2018-12-22T17:06:29.195Z,15.60
2018-12-22T17:08:55.311Z,14.93
2018-12-22T17:11:21.331Z,14.47
2018-12-22T17:13:47.334Z,16.30
2018-12-22T17:16:20.362Z,15.67
2018-12-22T17:18:46.399Z,13.33
2018-12-22T17:21:16.219Z,12.83
2018-12-22T17:23:48.653Z,15.33
2018-12-22T17:26:14.975Z,12.70
2018-12-22T17:28:41.238Z,16.27
2018-12-22T17:31:07.458Z,13.50
2018-12-22T17:33:33.579Z,14.23
2018-12-22T17:35:59.595Z,11.80
2018-12-22T17:38:25.717Z,19.80
2018-12-22T17:40:52.330Z,14.73
2018-12-22T17:43:18.339Z,10.70
2018-12-22T17:45:44.394Z,11.73
2018-12-22T17:48:10.545Z,11.70
2018-12-22T17:50:36.550Z,16.30
2018-12-22T17:53:02.562Z,14.03
2018-12-22T17:55:28.567Z,15.13
2018-12-22T17:57:54.696Z,12.43
2018-12-22T18:00:20.727Z,12.27
2018-12-22T18:02:46.802Z,16.40
2018-12-22T18:05:13.018Z,11.10
2018-12-22T18:07:39.030Z,15.27
2018-12-22T18:10:10.342Z,13.63
2018-12-22T18:12:36.561Z,18.57
2018-12-22T18:15:09.755Z,15.43
2018-12-22T18:17:35.760Z,13.70
2018-12-22T18:20:03.995Z,13.43
2018-12-22T18:22:37.516Z,12.43
2018-12-22T18:25:07.886Z,14.50
2018-12-22T18:27:33.890Z,12.40
2018-12-22T18:30:00.151Z,17.20
2018-12-22T18:32:26.287Z,13.63
2018-12-22T18:34:52.301Z,18.93
2018-12-22T18:37:18.535Z,10.70
2018-12-22T18:39:44.551Z,11.40
2018-12-22T18:42:11.782Z,13.17
2018-12-22T18:44:39.965Z,14.07
2018-12-22T18:47:05.934Z,11.20
2018-12-22T18:49:32.048Z,12.50
2018-12-22T18:51:58.348Z,14.97
2018-12-22T18:54:24.369Z,15.87
2018-12-22T18:56:50.374Z,14.10
2018-12-22T18:59:17.712Z,10.30
2018-12-22T19:01:43.777Z,14.67
2018-12-22T19:04:09.891Z,15.30
2018-12-22T19:06:35.914Z,13.27
2018-12-22T19:09:04.144Z,13.20
2018-12-22T19:11:30.138Z,11.93
2018-12-22T19:13:56.319Z,10.80
2018-12-22T19:16:22.340Z,10.63
2018-12-22T19:18:48.382Z,13.03
2018-12-22T19:21:14.431Z,13.53
2018-12-22T19:23:40.640Z,15.60
2018-12-22T19:26:06.651Z,11.00
2018-12-22T19:28:32.664Z,17.10
2018-12-22T19:30:58.662Z,10.93
2018-12-22T19:33:24.689Z,11.97
2018-12-22T19:35:50.707Z,18.60
2018-12-22T19:38:17.234Z,18.23
2018-12-22T19:40:43.635Z,11.57
2018-12-22T19:43:09.664Z,11.10
2018-12-22T19:45:35.777Z,17.70
2018-12-22T19:48:01.796Z,11.27
2018-12-22T19:50:27.866Z,12.33
2018-12-22T19:52:53.981Z,14.33
2018-12-22T19:55:20.046Z,17.43
2018-12-22T19:57:46.067Z,13.43
2018-12-22T20:00:12.080Z,10.47
2018-12-22T20:02:38.135Z,12.77
2018-12-22T20:05:04.809Z,11.63
2018-12-22T20:07:30.819Z,10.03
2018-12-22T20:09:56.828Z,10.43
2018-12-22T20:12:22.845Z,9.60
2018-12-22T20:14:48.980Z,9.73
2018-12-22T20:17:15.027Z,9.83
2018-12-22T20:19:41.338Z,12.73
2018-12-22T20:22:07.363Z,8.90
2018-12-22T20:24:33.420Z,7.47
2018-12-22T20:26:59.442Z,10.13
2018-12-22T20:29:25.592Z,5.23
2018-12-22T20:31:51.618Z,8.83
2018-12-22T20:34:17.624Z,14.33
2018-12-22T20:36:43.636Z,7.67
2018-12-22T20:39:09.648Z,10.37
2018-12-22T20:41:35.676Z,8.23
2018-12-22T20:44:01.711Z,14.33
2018-12-22T20:46:27.732Z,7.83
2018-12-22T20:48:53.768Z,10.80
2018-12-22T20:51:19.784Z,9.43
2018-12-22T20:53:45.783Z,10.60
2018-12-22T20:56:11.899Z,9.30
2018-12-22T20:58:37.913Z,9.60
2018-12-22T21:01:03.935Z,12.40
2018-12-22T21:03:36.687Z,12.87
2018-12-22T21:06:02.932Z,13.20
2018-12-22T21:08:28.943Z,12.27
2018-12-22T21:10:55.005Z,16.63
2018-12-22T21:13:21.105Z,9.77
2018-12-22T21:15:47.124Z,14.37
2018-12-22T21:18:13.158Z,14.90
2018-12-22T21:20:39.158Z,9.40
2018-12-22T21:23:05.208Z,13.17
2018-12-22T21:25:31.226Z,9.60
2018-12-22T21:27:57.239Z,10.13
2018-12-22T21:30:23.245Z,8.83
2018-12-22T21:32:49.259Z,11.53
2018-12-22T21:35:15.250Z,10.57
2018-12-22T21:37:41.335Z,9.50
2018-12-22T21:40:07.466Z,11.10
2018-12-22T21:42:33.567Z,21.27
2018-12-22T21:44:59.606Z,12.30
2018-12-22T21:47:25.606Z,9.97
2018-12-22T21:49:51.697Z,13.70
2018-12-22T21:52:17.800Z,10.00
2018-12-22T21:54:43.795Z,16.10
2018-12-22T21:57:09.812Z,9.23
2018-12-22T21:59:35.828Z,12.83
2018-12-22T22:02:01.859Z,11.00
2018-12-22T22:04:27.855Z,13.00
2018-12-22T22:06:53.859Z,11.67
2018-12-22T22:09:19.978Z,11.63
2018-12-22T22:11:46.008Z,11.40
2018-12-22T22:14:12.135Z,10.20
2018-12-22T22:16:38.461Z,10.13
2018-12-22T22:19:04.475Z,11.20
2018-12-22T22:21:30.490Z,10.73
2018-12-22T22:23:56.618Z,14.03
2018-12-22T22:26:29.683Z,15.10
2018-12-22T22:28:55.692Z,12.17
2018-12-22T22:31:21.697Z,8.97
2018-12-22T22:33:47.705Z,9.13
2018-12-22T22:36:13.711Z,11.17
2018-12-22T22:38:39.717Z,8.70
2018-12-22T22:41:05.734Z,15.03
2018-12-22T22:43:31.756Z,12.07
2018-12-22T22:45:57.754Z,11.73
2018-12-22T22:48:23.749Z,12.17
2018-12-22T22:50:56.731Z,15.90
2018-12-22T22:53:22.854Z,9.17
2018-12-22T22:55:48.899Z,12.03
2018-12-22T22:58:14.930Z,12.20
2018-12-22T23:00:41.514Z,13.90
2018-12-22T23:03:07.714Z,13.63
2018-12-22T23:05:33.722Z,11.13
2018-12-22T23:07:59.852Z,10.80
2018-12-22T23:10:25.958Z,9.53
2018-12-22T23:12:52.600Z,10.30
2018-12-22T23:15:18.618Z,14.43
2018-12-22T23:17:44.627Z,14.70
2018-12-22T23:20:10.655Z,10.17
2018-12-22T23:22:36.763Z,9.87
2018-12-22T23:25:03.987Z,9.77
2018-12-22T23:27:30.007Z,8.77
2018-12-22T23:29:56.014Z,13.47
2018-12-22T23:32:22.131Z,11.87
2018-12-22T23:34:48.143Z,13.13
2018-12-22T23:37:14.169Z,12.43
2018-12-22T23:39:40.187Z,18.03
2018-12-22T23:42:06.203Z,13.10
2018-12-22T23:44:32.254Z,17.37
2018-12-22T23:46:58.281Z,13.93
2018-12-22T23:49:24.306Z,16.47
2018-12-22T23:51:50.306Z,14.93
2018-12-22T23:54:16.309Z,17.60
2018-12-22T23:56:42.317Z,18.93
2018-12-22T23:59:08.375Z,12.57
